sensor_id;sensor_type;location;lat;lon;timestamp;P1;durP1;ratioP1;P2;durP2;ratioP2
31910;SDS011;18457;52.432;16.914;2023-04-12T00:02:26;16.40;;;5.80;;
31910;SDS011;18457;52.432;16.914;2023-04-12T00:04:58;17.00;;;6.20;;
31910;SDS011;18457;52.432;16.914;2023-04-12T00:07:31;14.50;;;6.40;;
31910;SDS011;18457;52.432;16.914;2023-04-12T00:10:03;8.80;;;4.40;;
31910;SDS011;18457;52.432;16.914;2023-04-12T00:12:37;11.60;;;6.00;;
31910;SDS011;18457;52.432;16.914;2023-04-12T00:15:10;15.40;;;6.20;;
31910;SDS011;18457;52.432;16.914;2023-04-12T00:17:42;16.30;;;5.40;;
31910;SDS011;18457;52.432;16.914;2023-04-12T00:20:15;16.80;;;6.20;;
31910;SDS011;18457;52.432;16.914;2023-04-12T00:22:47;8.50;;;4.20;;
31910;SDS011;18457;52.432;16.914;2023-04-12T00:25:19;18.20;;;5.30;;
31910;SDS011;18457;52.432;16.914;2023-04-12T00:27:52;14.70;;;5.70;;
31910;SDS011;18457;52.432;16.914;2023-04-12T00:30:24;8.90;;;4.10;;
31910;SDS011;18457;52.432;16.914;2023-04-12T00:32:56;10.60;;;7.10;;
31910;SDS011;18457;52.432;16.914;2023-04-12T00:35:28;7.50;;;4.30;;
31910;SDS011;18457;52.432;16.914;2023-04-12T00:38:00;16.70;;;6.50;;
31910;SDS011;18457;52.432;16.914;2023-04-12T00:40:40;14.40;;;5.90;;
31910;SDS011;18457;52.432;16.914;2023-04-12T00:43:13;15.20;;;6.00;;
31910;SDS011;18457;52.432;16.914;2023-04-12T00:45:47;9.90;;;5.60;;
31910;SDS011;18457;52.432;16.914;2023-04-12T00:48:19;12.50;;;6.20;;
31910;SDS011;18457;52.432;16.914;2023-04-12T00:50:51;16.20;;;6.70;;
31910;SDS011;18457;52.432;16.914;2023-04-12T00:53:25;11.80;;;5.90;;
31910;SDS011;18457;52.432;16.914;2023-04-12T00:55:58;10.60;;;5.50;;
31910;SDS011;18457;52.432;16.914;2023-04-12T00:58:31;8.50;;;5.10;;
31910;SDS011;18457;52.432;16.914;2023-04-12T01:01:03;8.90;;;4.80;;
31910;SDS011;18457;52.432;16.914;2023-04-12T01:03:36;11.90;;;6.50;;
31910;SDS011;18457;52.432;16.914;2023-04-12T01:06:13;13.90;;;6.20;;
31910;SDS011;18457;52.432;16.914;2023-04-12T01:08:56;15.10;;;6.50;;
31910;SDS011;18457;52.432;16.914;2023-04-12T01:11:31;10.70;;;6.20;;
31910;SDS011;18457;52.432;16.914;2023-04-12T01:14:08;13.80;;;5.90;;
31910;SDS011;18457;52.432;16.914;2023-04-12T01:16:47;10.20;;;6.30;;
31910;SDS011;18457;52.432;16.914;2023-04-12T01:19:32;13.70;;;6.40;;
31910;SDS011;18457;52.432;16.914;2023-04-12T01:22:27;9.10;;;5.50;;
31910;SDS011;18457;52.432;16.914;2023-04-12T01:25:13;15.30;;;6.90;;
31910;SDS011;18457;52.432;16.914;2023-04-12T01:27:56;10.80;;;5.70;;
31910;SDS011;18457;52.432;16.914;2023-04-12T01:30:31;12.40;;;5.90;;
31910;SDS011;18457;52.432;16.914;2023-04-12T01:33:05;11.30;;;6.70;;
31910;SDS011;18457;52.432;16.914;2023-04-12T01:35:40;10.80;;;6.00;;
31910;SDS011;18457;52.432;16.914;2023-04-12T01:38:13;10.40;;;5.70;;
31910;SDS011;18457;52.432;16.914;2023-04-12T01:40:45;12.10;;;6.90;;
31910;SDS011;18457;52.432;16.914;2023-04-12T01:43:20;12.00;;;6.30;;
31910;SDS011;18457;52.432;16.914;2023-04-12T01:45:51;12.80;;;7.30;;
31910;SDS011;18457;52.432;16.914;2023-04-12T01:48:23;13.30;;;6.60;;
31910;SDS011;18457;52.432;16.914;2023-04-12T01:51:04;12.30;;;6.20;;
31910;SDS011;18457;52.432;16.914;2023-04-12T01:53:44;10.50;;;6.20;;
31910;SDS011;18457;52.432;16.914;2023-04-12T01:56:18;10.80;;;5.90;;
31910;SDS011;18457;52.432;16.914;2023-04-12T01:58:51;10.70;;;6.20;;
31910;SDS011;18457;52.432;16.914;2023-04-12T02:01:26;17.60;;;7.10;;
31910;SDS011;18457;52.432;16.914;2023-04-12T02:03:59;12.20;;;5.60;;
31910;SDS011;18457;52.432;16.914;2023-04-12T02:06:32;17.40;;;6.50;;
31910;SDS011;18457;52.432;16.914;2023-04-12T02:11:38;13.40;;;6.70;;
31910;SDS011;18457;52.432;16.914;2023-04-12T02:16:41;11.60;;;6.00;;
31910;SDS011;18457;52.432;16.914;2023-04-12T02:19:13;14.20;;;6.70;;
31910;SDS011;18457;52.432;16.914;2023-04-12T02:21:46;18.60;;;7.10;;
31910;SDS011;18457;52.432;16.914;2023-04-12T02:24:17;11.10;;;4.80;;
31910;SDS011;18457;52.432;16.914;2023-04-12T02:26:49;13.70;;;6.90;;
31910;SDS011;18457;52.432;16.914;2023-04-12T02:29:23;13.90;;;6.90;;
31910;SDS011;18457;52.432;16.914;2023-04-12T02:31:55;11.70;;;7.30;;
31910;SDS011;18457;52.432;16.914;2023-04-12T02:37:18;16.00;;;7.70;;
31910;SDS011;18457;52.432;16.914;2023-04-12T02:39:52;18.20;;;7.40;;
31910;SDS011;18457;52.432;16.914;2023-04-12T02:42:25;14.30;;;6.80;;
31910;SDS011;18457;52.432;16.914;2023-04-12T02:44:57;14.00;;;6.80;;
31910;SDS011;18457;52.432;16.914;2023-04-12T02:47:29;8.60;;;4.20;;
31910;SDS011;18457;52.432;16.914;2023-04-12T02:50:01;12.80;;;7.00;;
31910;SDS011;18457;52.432;16.914;2023-04-12T02:52:36;10.10;;;6.40;;
31910;SDS011;18457;52.432;16.914;2023-04-12T02:55:10;15.10;;;6.80;;
31910;SDS011;18457;52.432;16.914;2023-04-12T02:57:42;8.50;;;4.80;;
31910;SDS011;18457;52.432;16.914;2023-04-12T03:00:16;15.70;;;7.20;;
31910;SDS011;18457;52.432;16.914;2023-04-12T03:02:50;24.30;;;7.90;;
31910;SDS011;18457;52.432;16.914;2023-04-12T03:05:26;13.90;;;7.60;;
31910;SDS011;18457;52.432;16.914;2023-04-12T03:07:58;11.50;;;6.80;;
31910;SDS011;18457;52.432;16.914;2023-04-12T03:10:37;12.30;;;6.90;;
31910;SDS011;18457;52.432;16.914;2023-04-12T03:13:09;16.10;;;7.40;;
31910;SDS011;18457;52.432;16.914;2023-04-12T03:15:46;13.00;;;7.90;;
31910;SDS011;18457;52.432;16.914;2023-04-12T03:18:18;13.90;;;7.10;;
31910;SDS011;18457;52.432;16.914;2023-04-12T03:23:22;12.40;;;7.10;;
31910;SDS011;18457;52.432;16.914;2023-04-12T03:26:02;16.40;;;7.30;;
31910;SDS011;18457;52.432;16.914;2023-04-12T03:28:35;12.30;;;8.00;;
31910;SDS011;18457;52.432;16.914;2023-04-12T03:31:07;19.10;;;7.40;;
31910;SDS011;18457;52.432;16.914;2023-04-12T03:33:45;14.00;;;7.40;;
31910;SDS011;18457;52.432;16.914;2023-04-12T03:36:24;11.30;;;6.80;;
31910;SDS011;18457;52.432;16.914;2023-04-12T03:39:02;11.10;;;7.20;;
31910;SDS011;18457;52.432;16.914;2023-04-12T03:41:36;13.40;;;7.00;;
31910;SDS011;18457;52.432;16.914;2023-04-12T03:44:09;13.40;;;7.50;;
31910;SDS011;18457;52.432;16.914;2023-04-12T03:46:41;16.00;;;7.20;;
31910;SDS011;18457;52.432;16.914;2023-04-12T03:49:13;12.70;;;7.60;;
31910;SDS011;18457;52.432;16.914;2023-04-12T03:51:47;14.80;;;8.10;;
31910;SDS011;18457;52.432;16.914;2023-04-12T03:54:20;15.90;;;8.00;;
31910;SDS011;18457;52.432;16.914;2023-04-12T03:56:57;13.70;;;8.10;;
31910;SDS011;18457;52.432;16.914;2023-04-12T03:59:37;15.20;;;7.70;;
31910;SDS011;18457;52.432;16.914;2023-04-12T04:02:09;14.60;;;7.90;;
31910;SDS011;18457;52.432;16.914;2023-04-12T04:04:46;12.50;;;6.70;;
31910;SDS011;18457;52.432;16.914;2023-04-12T04:07:26;12.60;;;6.40;;
31910;SDS011;18457;52.432;16.914;2023-04-12T04:09:57;8.00;;;5.00;;
31910;SDS011;18457;52.432;16.914;2023-04-12T04:12:33;15.50;;;6.50;;
31910;SDS011;18457;52.432;16.914;2023-04-12T04:15:07;10.90;;;6.20;;
31910;SDS011;18457;52.432;16.914;2023-04-12T04:17:41;16.00;;;6.70;;
31910;SDS011;18457;52.432;16.914;2023-04-12T04:20:16;14.50;;;7.40;;
31910;SDS011;18457;52.432;16.914;2023-04-12T04:22:50;14.90;;;6.80;;
31910;SDS011;18457;52.432;16.914;2023-04-12T04:25:23;13.20;;;7.00;;
31910;SDS011;18457;52.432;16.914;2023-04-12T04:28:02;16.10;;;8.00;;
31910;SDS011;18457;52.432;16.914;2023-04-12T04:30:34;15.50;;;7.30;;
31910;SDS011;18457;52.432;16.914;2023-04-12T04:33:08;16.80;;;7.50;;
31910;SDS011;18457;52.432;16.914;2023-04-12T04:35:41;16.80;;;8.70;;
31910;SDS011;18457;52.432;16.914;2023-04-12T04:38:23;14.90;;;7.60;;
31910;SDS011;18457;52.432;16.914;2023-04-12T04:41:01;15.40;;;8.00;;
31910;SDS011;18457;52.432;16.914;2023-04-12T04:43:46;24.30;;;10.70;;
31910;SDS011;18457;52.432;16.914;2023-04-12T04:46:18;21.70;;;10.40;;
31910;SDS011;18457;52.432;16.914;2023-04-12T04:48:50;17.50;;;8.30;;
31910;SDS011;18457;52.432;16.914;2023-04-12T04:51:23;15.50;;;8.60;;
31910;SDS011;18457;52.432;16.914;2023-04-12T04:53:56;14.00;;;8.60;;
31910;SDS011;18457;52.432;16.914;2023-04-12T04:56:28;18.90;;;8.90;;
31910;SDS011;18457;52.432;16.914;2023-04-12T05:01:31;13.90;;;8.40;;
31910;SDS011;18457;52.432;16.914;2023-04-12T05:04:04;16.20;;;8.30;;
31910;SDS011;18457;52.432;16.914;2023-04-12T05:06:36;16.00;;;8.30;;
31910;SDS011;18457;52.432;16.914;2023-04-12T05:09:09;16.40;;;8.90;;
31910;SDS011;18457;52.432;16.914;2023-04-12T05:11:47;21.80;;;9.80;;
31910;SDS011;18457;52.432;16.914;2023-04-12T05:14:19;15.10;;;8.90;;
31910;SDS011;18457;52.432;16.914;2023-04-12T05:16:52;17.10;;;8.10;;
31910;SDS011;18457;52.432;16.914;2023-04-12T05:19:24;16.30;;;8.30;;
31910;SDS011;18457;52.432;16.914;2023-04-12T05:21:58;15.40;;;8.50;;
31910;SDS011;18457;52.432;16.914;2023-04-12T05:24:30;18.60;;;9.30;;
31910;SDS011;18457;52.432;16.914;2023-04-12T05:27:05;20.10;;;9.00;;
31910;SDS011;18457;52.432;16.914;2023-04-12T05:29:37;19.10;;;9.40;;
31910;SDS011;18457;52.432;16.914;2023-04-12T05:32:10;15.70;;;7.90;;
31910;SDS011;18457;52.432;16.914;2023-04-12T05:34:42;24.90;;;9.50;;
31910;SDS011;18457;52.432;16.914;2023-04-12T05:37:14;11.80;;;7.00;;
31910;SDS011;18457;52.432;16.914;2023-04-12T05:39:46;16.00;;;8.00;;
31910;SDS011;18457;52.432;16.914;2023-04-12T05:42:19;22.60;;;8.60;;
31910;SDS011;18457;52.432;16.914;2023-04-12T05:44:51;16.00;;;8.00;;
31910;SDS011;18457;52.432;16.914;2023-04-12T05:47:24;16.50;;;8.00;;
31910;SDS011;18457;52.432;16.914;2023-04-12T05:49:57;21.40;;;9.30;;
31910;SDS011;18457;52.432;16.914;2023-04-12T05:55:00;21.20;;;9.80;;
31910;SDS011;18457;52.432;16.914;2023-04-12T05:57:33;22.10;;;10.40;;
31910;SDS011;18457;52.432;16.914;2023-04-12T06:00:06;20.40;;;10.60;;
31910;SDS011;18457;52.432;16.914;2023-04-12T06:02:46;20.60;;;9.40;;
31910;SDS011;18457;52.432;16.914;2023-04-12T06:05:19;18.20;;;8.60;;
31910;SDS011;18457;52.432;16.914;2023-04-12T06:07:51;17.30;;;9.70;;
31910;SDS011;18457;52.432;16.914;2023-04-12T06:10:23;16.40;;;9.10;;
31910;SDS011;18457;52.432;16.914;2023-04-12T06:12:55;15.20;;;9.30;;
31910;SDS011;18457;52.432;16.914;2023-04-12T06:15:27;19.80;;;9.50;;
31910;SDS011;18457;52.432;16.914;2023-04-12T06:20:30;18.10;;;10.20;;
31910;SDS011;18457;52.432;16.914;2023-04-12T06:23:02;17.00;;;9.60;;
31910;SDS011;18457;52.432;16.914;2023-04-12T06:25:35;17.10;;;8.80;;
31910;SDS011;18457;52.432;16.914;2023-04-12T06:30:44;18.70;;;9.20;;
31910;SDS011;18457;52.432;16.914;2023-04-12T06:33:16;17.60;;;9.80;;
31910;SDS011;18457;52.432;16.914;2023-04-12T06:35:51;22.30;;;10.20;;
31910;SDS011;18457;52.432;16.914;2023-04-12T06:40:54;19.90;;;9.50;;
31910;SDS011;18457;52.432;16.914;2023-04-12T06:43:26;16.60;;;9.70;;
31910;SDS011;18457;52.432;16.914;2023-04-12T06:45:58;19.70;;;9.60;;
31910;SDS011;18457;52.432;16.914;2023-04-12T06:51:01;19.50;;;9.60;;
31910;SDS011;18457;52.432;16.914;2023-04-12T06:53:33;17.40;;;10.10;;
31910;SDS011;18457;52.432;16.914;2023-04-12T06:56:07;21.90;;;10.60;;
31910;SDS011;18457;52.432;16.914;2023-04-12T06:58:39;17.90;;;10.40;;
31910;SDS011;18457;52.432;16.914;2023-04-12T07:01:11;12.40;;;7.60;;
31910;SDS011;18457;52.432;16.914;2023-04-12T07:03:43;22.80;;;10.30;;
31910;SDS011;18457;52.432;16.914;2023-04-12T07:06:15;16.40;;;9.70;;
31910;SDS011;18457;52.432;16.914;2023-04-12T07:08:54;21.80;;;11.40;;
31910;SDS011;18457;52.432;16.914;2023-04-12T07:11:26;21.40;;;11.30;;
31910;SDS011;18457;52.432;16.914;2023-04-12T07:13:59;19.50;;;11.80;;
31910;SDS011;18457;52.432;16.914;2023-04-12T07:16:31;20.50;;;11.00;;
31910;SDS011;18457;52.432;16.914;2023-04-12T07:19:03;16.90;;;8.10;;
31910;SDS011;18457;52.432;16.914;2023-04-12T07:21:35;20.20;;;11.30;;
31910;SDS011;18457;52.432;16.914;2023-04-12T07:24:07;18.60;;;11.00;;
31910;SDS011;18457;52.432;16.914;2023-04-12T07:26:39;20.40;;;10.40;;
31910;SDS011;18457;52.432;16.914;2023-04-12T07:29:11;23.10;;;11.20;;
31910;SDS011;18457;52.432;16.914;2023-04-12T07:31:45;19.90;;;11.80;;
31910;SDS011;18457;52.432;16.914;2023-04-12T07:34:16;16.60;;;9.70;;
31910;SDS011;18457;52.432;16.914;2023-04-12T07:36:49;22.30;;;11.60;;
31910;SDS011;18457;52.432;16.914;2023-04-12T07:39:21;18.50;;;10.20;;
31910;SDS011;18457;52.432;16.914;2023-04-12T07:41:53;21.00;;;10.80;;
31910;SDS011;18457;52.432;16.914;2023-04-12T07:44:25;15.80;;;7.70;;
31910;SDS011;18457;52.432;16.914;2023-04-12T07:46:57;10.20;;;7.10;;
31910;SDS011;18457;52.432;16.914;2023-04-12T07:49:29;18.70;;;9.90;;
31910;SDS011;18457;52.432;16.914;2023-04-12T07:52:01;18.60;;;10.20;;
31910;SDS011;18457;52.432;16.914;2023-04-12T07:54:33;17.00;;;10.00;;
31910;SDS011;18457;52.432;16.914;2023-04-12T07:57:05;21.20;;;10.60;;
31910;SDS011;18457;52.432;16.914;2023-04-12T08:02:08;16.40;;;9.50;;
31910;SDS011;18457;52.432;16.914;2023-04-12T08:04:40;18.40;;;9.40;;
31910;SDS011;18457;52.432;16.914;2023-04-12T08:09:44;20.40;;;9.10;;
31910;SDS011;18457;52.432;16.914;2023-04-12T08:12:16;13.80;;;8.80;;
31910;SDS011;18457;52.432;16.914;2023-04-12T08:14:49;22.30;;;9.30;;
31910;SDS011;18457;52.432;16.914;2023-04-12T08:17:20;12.50;;;8.20;;
31910;SDS011;18457;52.432;16.914;2023-04-12T08:19:55;16.60;;;9.10;;
31910;SDS011;18457;52.432;16.914;2023-04-12T08:22:27;11.80;;;7.70;;
31910;SDS011;18457;52.432;16.914;2023-04-12T08:24:59;17.20;;;9.60;;
31910;SDS011;18457;52.432;16.914;2023-04-12T08:27:31;13.70;;;8.40;;
31910;SDS011;18457;52.432;16.914;2023-04-12T08:30:03;19.80;;;9.40;;
31910;SDS011;18457;52.432;16.914;2023-04-12T08:32:36;17.30;;;8.80;;
31910;SDS011;18457;52.432;16.914;2023-04-12T08:37:40;15.20;;;9.30;;
31910;SDS011;18457;52.432;16.914;2023-04-12T08:40:12;16.50;;;8.80;;
31910;SDS011;18457;52.432;16.914;2023-04-12T08:45:15;14.50;;;8.90;;
31910;SDS011;18457;52.432;16.914;2023-04-12T08:47:48;13.80;;;7.90;;
31910;SDS011;18457;52.432;16.914;2023-04-12T08:50:20;20.80;;;10.10;;
31910;SDS011;18457;52.432;16.914;2023-04-12T08:52:53;20.20;;;9.80;;
31910;SDS011;18457;52.432;16.914;2023-04-12T08:55:27;18.50;;;8.30;;
31910;SDS011;18457;52.432;16.914;2023-04-12T08:57:58;15.70;;;8.70;;
31910;SDS011;18457;52.432;16.914;2023-04-12T09:00:36;15.20;;;8.80;;
31910;SDS011;18457;52.432;16.914;2023-04-12T09:03:08;18.00;;;10.00;;
31910;SDS011;18457;52.432;16.914;2023-04-12T09:05:40;16.30;;;10.10;;
31910;SDS011;18457;52.432;16.914;2023-04-12T09:08:12;19.80;;;10.30;;
31910;SDS011;18457;52.432;16.914;2023-04-12T09:10:45;15.00;;;10.00;;
31910;SDS011;18457;52.432;16.914;2023-04-12T09:13:17;13.20;;;8.70;;
31910;SDS011;18457;52.432;16.914;2023-04-12T09:16:02;11.70;;;8.00;;
31910;SDS011;18457;52.432;16.914;2023-04-12T09:18:37;16.60;;;9.20;;
31910;SDS011;18457;52.432;16.914;2023-04-12T09:21:19;18.90;;;9.40;;
31910;SDS011;18457;52.432;16.914;2023-04-12T09:24:02;15.30;;;8.60;;
31910;SDS011;18457;52.432;16.914;2023-04-12T09:26:40;17.20;;;9.30;;
31910;SDS011;18457;52.432;16.914;2023-04-12T09:29:22;19.20;;;8.10;;
31910;SDS011;18457;52.432;16.914;2023-04-12T09:31:55;14.90;;;9.30;;
31910;SDS011;18457;52.432;16.914;2023-04-12T09:34:30;15.60;;;8.60;;
31910;SDS011;18457;52.432;16.914;2023-04-12T09:37:12;18.40;;;9.20;;
31910;SDS011;18457;52.432;16.914;2023-04-12T09:39:45;13.10;;;8.50;;
31910;SDS011;18457;52.432;16.914;2023-04-12T09:44:53;13.20;;;8.10;;
31910;SDS011;18457;52.432;16.914;2023-04-12T09:47:36;15.30;;;9.30;;
31910;SDS011;18457;52.432;16.914;2023-04-12T09:50:10;12.80;;;7.70;;
31910;SDS011;18457;52.432;16.914;2023-04-12T09:52:51;15.00;;;8.50;;
31910;SDS011;18457;52.432;16.914;2023-04-12T09:55:25;14.30;;;8.60;;
31910;SDS011;18457;52.432;16.914;2023-04-12T09:58:00;14.00;;;8.30;;
31910;SDS011;18457;52.432;16.914;2023-04-12T10:00:33;11.20;;;7.90;;
31910;SDS011;18457;52.432;16.914;2023-04-12T10:03:06;14.00;;;8.40;;
31910;SDS011;18457;52.432;16.914;2023-04-12T10:05:40;18.00;;;8.60;;
31910;SDS011;18457;52.432;16.914;2023-04-12T10:08:12;16.70;;;8.30;;
31910;SDS011;18457;52.432;16.914;2023-04-12T10:10:46;16.40;;;9.30;;
31910;SDS011;18457;52.432;16.914;2023-04-12T10:13:19;12.90;;;8.00;;
31910;SDS011;18457;52.432;16.914;2023-04-12T10:15:54;12.10;;;8.60;;
31910;SDS011;18457;52.432;16.914;2023-04-12T10:18:26;6.40;;;4.70;;
31910;SDS011;18457;52.432;16.914;2023-04-12T10:20:59;9.90;;;5.90;;
31910;SDS011;18457;52.432;16.914;2023-04-12T10:23:32;10.10;;;5.90;;
31910;SDS011;18457;52.432;16.914;2023-04-12T10:26:05;8.30;;;5.20;;
31910;SDS011;18457;52.432;16.914;2023-04-12T10:28:37;7.70;;;4.50;;
31910;SDS011;18457;52.432;16.914;2023-04-12T10:31:28;6.80;;;4.00;;
31910;SDS011;18457;52.432;16.914;2023-04-12T10:34:02;5.10;;;4.10;;
31910;SDS011;18457;52.432;16.914;2023-04-12T10:39:35;7.10;;;4.20;;
31910;SDS011;18457;52.432;16.914;2023-04-12T10:42:19;16.00;;;4.70;;
31910;SDS011;18457;52.432;16.914;2023-04-12T10:44:53;11.10;;;5.10;;
31910;SDS011;18457;52.432;16.914;2023-04-12T10:50:30;10.10;;;6.10;;
31910;SDS011;18457;52.432;16.914;2023-04-12T10:55:54;7.30;;;4.80;;
31910;SDS011;18457;52.432;16.914;2023-04-12T11:01:30;7.40;;;4.80;;
31910;SDS011;18457;52.432;16.914;2023-04-12T11:04:10;8.40;;;4.60;;
31910;SDS011;18457;52.432;16.914;2023-04-12T11:07:00;10.60;;;5.00;;
31910;SDS011;18457;52.432;16.914;2023-04-12T11:09:41;7.00;;;4.90;;
31910;SDS011;18457;52.432;16.914;2023-04-12T11:12:25;10.00;;;5.50;;
31910;SDS011;18457;52.432;16.914;2023-04-12T11:14:59;14.10;;;5.30;;
31910;SDS011;18457;52.432;16.914;2023-04-12T11:17:52;9.50;;;5.70;;
31910;SDS011;18457;52.432;16.914;2023-04-12T11:20:26;12.10;;;6.80;;
31910;SDS011;18457;52.432;16.914;2023-04-12T11:23:00;9.90;;;6.30;;
31910;SDS011;18457;52.432;16.914;2023-04-12T11:25:34;10.70;;;5.70;;
31910;SDS011;18457;52.432;16.914;2023-04-12T11:28:07;9.20;;;6.00;;
31910;SDS011;18457;52.432;16.914;2023-04-12T11:30:58;11.30;;;5.50;;
31910;SDS011;18457;52.432;16.914;2023-04-12T11:33:33;9.80;;;6.00;;
31910;SDS011;18457;52.432;16.914;2023-04-12T11:36:07;9.80;;;5.50;;
31910;SDS011;18457;52.432;16.914;2023-04-12T11:38:41;11.10;;;7.90;;
31910;SDS011;18457;52.432;16.914;2023-04-12T11:41:15;7.40;;;4.90;;
31910;SDS011;18457;52.432;16.914;2023-04-12T11:43:52;8.80;;;5.70;;
31910;SDS011;18457;52.432;16.914;2023-04-12T11:46:25;11.10;;;5.60;;
31910;SDS011;18457;52.432;16.914;2023-04-12T11:49:02;10.70;;;5.80;;
31910;SDS011;18457;52.432;16.914;2023-04-12T11:51:34;9.90;;;6.20;;
31910;SDS011;18457;52.432;16.914;2023-04-12T11:54:06;9.80;;;6.10;;
31910;SDS011;18457;52.432;16.914;2023-04-12T11:59:10;10.70;;;5.90;;
31910;SDS011;18457;52.432;16.914;2023-04-12T12:01:42;9.80;;;6.10;;
31910;SDS011;18457;52.432;16.914;2023-04-12T12:04:15;8.20;;;5.90;;
31910;SDS011;18457;52.432;16.914;2023-04-12T12:06:48;9.20;;;6.10;;
31910;SDS011;18457;52.432;16.914;2023-04-12T12:09:21;9.00;;;5.50;;
31910;SDS011;18457;52.432;16.914;2023-04-12T12:14:26;24.30;;;6.60;;
31910;SDS011;18457;52.432;16.914;2023-04-12T12:17:00;21.50;;;6.80;;
31910;SDS011;18457;52.432;16.914;2023-04-12T12:19:39;14.40;;;6.40;;
31910;SDS011;18457;52.432;16.914;2023-04-12T12:22:13;8.50;;;5.40;;
31910;SDS011;18457;52.432;16.914;2023-04-12T12:24:48;8.40;;;5.90;;
31910;SDS011;18457;52.432;16.914;2023-04-12T12:27:30;10.20;;;6.30;;
31910;SDS011;18457;52.432;16.914;2023-04-12T12:30:08;8.90;;;6.40;;
31910;SDS011;18457;52.432;16.914;2023-04-12T12:32:41;9.50;;;6.70;;
31910;SDS011;18457;52.432;16.914;2023-04-12T12:37:48;7.80;;;5.70;;
31910;SDS011;18457;52.432;16.914;2023-04-12T12:40:28;6.90;;;5.30;;
31910;SDS011;18457;52.432;16.914;2023-04-12T12:43:01;6.80;;;4.90;;
31910;SDS011;18457;52.432;16.914;2023-04-12T12:45:35;7.30;;;5.60;;
31910;SDS011;18457;52.432;16.914;2023-04-12T12:48:08;14.40;;;5.70;;
31910;SDS011;18457;52.432;16.914;2023-04-12T12:50:41;8.70;;;5.60;;
31910;SDS011;18457;52.432;16.914;2023-04-12T12:53:15;8.00;;;5.00;;
31910;SDS011;18457;52.432;16.914;2023-04-12T12:55:47;9.20;;;5.10;;
31910;SDS011;18457;52.432;16.914;2023-04-12T12:58:19;8.20;;;5.20;;
31910;SDS011;18457;52.432;16.914;2023-04-12T13:00:51;8.40;;;5.20;;
31910;SDS011;18457;52.432;16.914;2023-04-12T13:03:24;7.70;;;4.90;;
31910;SDS011;18457;52.432;16.914;2023-04-12T13:05:56;6.90;;;5.00;;
31910;SDS011;18457;52.432;16.914;2023-04-12T13:08:29;7.70;;;5.20;;
31910;SDS011;18457;52.432;16.914;2023-04-12T13:11:05;6.60;;;4.80;;
31910;SDS011;18457;52.432;16.914;2023-04-12T13:13:37;7.50;;;5.40;;
31910;SDS011;18457;52.432;16.914;2023-04-12T13:16:09;8.50;;;4.80;;
31910;SDS011;18457;52.432;16.914;2023-04-12T13:18:43;9.50;;;5.90;;
31910;SDS011;18457;52.432;16.914;2023-04-12T13:21:15;8.10;;;5.60;;
31910;SDS011;18457;52.432;16.914;2023-04-12T13:23:47;9.20;;;6.20;;
31910;SDS011;18457;52.432;16.914;2023-04-12T13:26:19;11.90;;;5.80;;
31910;SDS011;18457;52.432;16.914;2023-04-12T13:28:53;9.40;;;5.90;;
31910;SDS011;18457;52.432;16.914;2023-04-12T13:31:26;14.40;;;6.30;;
31910;SDS011;18457;52.432;16.914;2023-04-12T13:33:58;11.40;;;6.30;;
31910;SDS011;18457;52.432;16.914;2023-04-12T13:36:30;8.70;;;5.30;;
31910;SDS011;18457;52.432;16.914;2023-04-12T13:39:03;12.50;;;5.60;;
31910;SDS011;18457;52.432;16.914;2023-04-12T13:41:35;7.10;;;5.40;;
31910;SDS011;18457;52.432;16.914;2023-04-12T13:44:07;9.10;;;4.40;;
31910;SDS011;18457;52.432;16.914;2023-04-12T13:46:39;15.00;;;5.30;;
31910;SDS011;18457;52.432;16.914;2023-04-12T13:49:12;10.50;;;5.10;;
31910;SDS011;18457;52.432;16.914;2023-04-12T13:51:44;7.90;;;4.50;;
31910;SDS011;18457;52.432;16.914;2023-04-12T13:54:16;6.70;;;4.90;;
31910;SDS011;18457;52.432;16.914;2023-04-12T13:56:48;7.10;;;4.50;;
31910;SDS011;18457;52.432;16.914;2023-04-12T13:59:20;6.50;;;4.50;;
31910;SDS011;18457;52.432;16.914;2023-04-12T14:01:52;5.90;;;4.30;;
31910;SDS011;18457;52.432;16.914;2023-04-12T14:04:25;19.30;;;4.80;;
31910;SDS011;18457;52.432;16.914;2023-04-12T14:06:58;7.00;;;3.50;;
31910;SDS011;18457;52.432;16.914;2023-04-12T14:09:30;5.20;;;4.00;;
31910;SDS011;18457;52.432;16.914;2023-04-12T14:12:03;6.00;;;4.00;;
31910;SDS011;18457;52.432;16.914;2023-04-12T14:14:35;4.60;;;3.50;;
31910;SDS011;18457;52.432;16.914;2023-04-12T14:19:38;5.90;;;3.80;;
31910;SDS011;18457;52.432;16.914;2023-04-12T14:22:10;6.20;;;3.60;;
31910;SDS011;18457;52.432;16.914;2023-04-12T14:24:42;7.60;;;3.50;;
31910;SDS011;18457;52.432;16.914;2023-04-12T14:27:14;7.40;;;3.60;;
31910;SDS011;18457;52.432;16.914;2023-04-12T14:29:46;5.90;;;3.70;;
31910;SDS011;18457;52.432;16.914;2023-04-12T14:32:18;5.10;;;3.30;;
31910;SDS011;18457;52.432;16.914;2023-04-12T14:34:51;3.80;;;3.50;;
31910;SDS011;18457;52.432;16.914;2023-04-12T14:37:23;5.00;;;3.40;;
31910;SDS011;18457;52.432;16.914;2023-04-12T14:39:55;5.90;;;4.10;;
31910;SDS011;18457;52.432;16.914;2023-04-12T14:42:27;6.30;;;3.70;;
31910;SDS011;18457;52.432;16.914;2023-04-12T14:45:00;5.60;;;3.80;;
31910;SDS011;18457;52.432;16.914;2023-04-12T14:47:33;7.00;;;4.10;;
31910;SDS011;18457;52.432;16.914;2023-04-12T14:50:06;7.40;;;4.20;;
31910;SDS011;18457;52.432;16.914;2023-04-12T14:52:39;7.30;;;3.90;;
31910;SDS011;18457;52.432;16.914;2023-04-12T14:55:11;4.30;;;3.80;;
31910;SDS011;18457;52.432;16.914;2023-04-12T14:57:44;5.50;;;4.60;;
31910;SDS011;18457;52.432;16.914;2023-04-12T15:00:17;10.70;;;4.60;;
31910;SDS011;18457;52.432;16.914;2023-04-12T15:02:50;8.20;;;4.10;;
31910;SDS011;18457;52.432;16.914;2023-04-12T15:05:23;6.60;;;4.40;;
31910;SDS011;18457;52.432;16.914;2023-04-12T15:07:55;5.90;;;4.80;;
31910;SDS011;18457;52.432;16.914;2023-04-12T15:10:27;5.90;;;4.50;;
31910;SDS011;18457;52.432;16.914;2023-04-12T15:12:59;4.80;;;4.30;;
31910;SDS011;18457;52.432;16.914;2023-04-12T15:15:31;6.70;;;3.80;;
31910;SDS011;18457;52.432;16.914;2023-04-12T15:18:03;5.20;;;4.10;;
31910;SDS011;18457;52.432;16.914;2023-04-12T15:20:35;11.20;;;4.30;;
31910;SDS011;18457;52.432;16.914;2023-04-12T15:23:08;5.30;;;4.30;;
31910;SDS011;18457;52.432;16.914;2023-04-12T15:25:40;4.20;;;3.80;;
31910;SDS011;18457;52.432;16.914;2023-04-12T15:28:13;5.10;;;3.90;;
31910;SDS011;18457;52.432;16.914;2023-04-12T15:30:45;3.60;;;3.30;;
31910;SDS011;18457;52.432;16.914;2023-04-12T15:33:18;4.60;;;3.20;;
31910;SDS011;18457;52.432;16.914;2023-04-12T15:35:50;5.00;;;3.00;;
31910;SDS011;18457;52.432;16.914;2023-04-12T15:38:25;5.00;;;3.40;;
31910;SDS011;18457;52.432;16.914;2023-04-12T15:40:59;4.50;;;3.10;;
31910;SDS011;18457;52.432;16.914;2023-04-12T15:43:32;5.10;;;3.50;;
31910;SDS011;18457;52.432;16.914;2023-04-12T15:46:04;7.10;;;4.20;;
31910;SDS011;18457;52.432;16.914;2023-04-12T15:51:07;8.40;;;3.60;;
31910;SDS011;18457;52.432;16.914;2023-04-12T15:53:40;6.40;;;3.70;;
31910;SDS011;18457;52.432;16.914;2023-04-12T15:56:12;8.10;;;3.90;;
31910;SDS011;18457;52.432;16.914;2023-04-12T15:58:48;4.60;;;2.90;;
31910;SDS011;18457;52.432;16.914;2023-04-12T16:01:20;4.90;;;3.20;;
31910;SDS011;18457;52.432;16.914;2023-04-12T16:03:52;5.80;;;3.30;;
31910;SDS011;18457;52.432;16.914;2023-04-12T16:06:24;5.70;;;3.30;;